Pagrindinis puslapis
METAR-TAF:

METAR-TAF

Oro uostai :

Guaratinguetá, San Paulas, Brazilija

platuma: 22-47S, ilguma: 045-12W, Aukštis: 537 m

Dabartinis oras

Ataskaita buvo paskelbta 1 valandą ir 11 minutes, ne 21:00 UTC
Vėjas 3 kt iš Rytų/Šiaurės Rytų, svyruoja nuo Šiaurės/Šiaurės Rytų ir Rytų
Temperatūra 21°C
Drėgmė 73%
Slėgis 1021 hPa
Matomumas: 7000 m

METAR: SBGW 052100Z 06003KT 020V090 7000 NSC 21/16 Q1021

Laikas: 19:11 (22:11 UTC)

Prognozė

Ataskaita buvo paskelbta 7 valandos ir 11 minutes, ne 15:00 UTC
Prognozė galioja nuo 05 metu 18 UTC su 06 metu 06 UTC
Vėjas 1 kt iš Šiaurės
Matomumas: 8000 m
Mažai debesys ne aukštis 3500 ft
Tapsmas
nuo 06 metu 04 UTC su 06 metu 06 UTC
Vėjas 1 kt iš Rytų/Šiaurės Rytų
Matomumas: 6000 m
Išsisklaidę debesys ne aukštis 1500 ft

TAF: SBGW 051500Z 0518/0606 35001KT 8000 FEW035 TX25/0518Z TN16/0606Z BECMG 0604/0606 06001KT 6000 SCT015 RMK PFM

Orai ataskaitas ir orų prognozės (METAR, TAF).

turimą stotys yra geltonos ir raudonos taškus žemėlapyje.

Perkelti pele per norėdami pamatyti stoties vardą.

Tada spustelėkite, norėdami matyti oro stebėjimo ir prognozės.

Norėdami pakeisti žemėlapį: spustelėkite ant žalios mygtukų su juodo kryžiaus žemyn,; žalią mygtuką su brūkšneliu, jei norite nutolinti; arba žalių rodyklių gretimoms žemėlapius.


METAR-TAF: